createdAt,value
2022-08-31T00:00:28.823Z,102867.34
2022-08-31T00:03:14.438Z,102863.91
2022-08-31T00:05:41.420Z,102861.16
2022-08-31T00:08:08.643Z,102862.03
2022-08-31T00:10:36.796Z,102861.34
2022-08-31T00:13:06.829Z,102862.34
2022-08-31T00:15:34.723Z,102859.94
2022-08-31T00:18:01.588Z,102863.69
2022-08-31T00:20:33.602Z,102865.59
2022-08-31T00:23:06.304Z,102860.09
2022-08-31T00:25:34.465Z,102857.34
2022-08-31T00:28:02.057Z,102858.53
2022-08-31T00:30:29.628Z,102863.16
2022-08-31T00:32:58.267Z,102864.03
2022-08-31T00:35:27.014Z,102865.22
2022-08-31T00:37:53.862Z,102865.38
2022-08-31T00:40:21.419Z,102864.38
2022-08-31T00:42:48.190Z,102873.78
2022-08-31T00:45:15.130Z,102863.81
2022-08-31T00:47:42.194Z,102869.31
2022-08-31T00:50:14.178Z,102865.72
2022-08-31T00:52:46.090Z,102866.72
2022-08-31T00:55:24.780Z,102868.97
2022-08-31T00:57:56.136Z,102864.03
2022-08-31T01:00:26.556Z,102862.53
2022-08-31T01:02:55.273Z,102860.44
2022-08-31T01:05:22.551Z,102860.16
2022-08-31T01:07:50.764Z,102852.22
2022-08-31T01:10:20.784Z,102847.38
2022-08-31T01:12:50.535Z,102845.66
2022-08-31T01:15:18.128Z,102850.75
2022-08-31T01:17:48.430Z,102844.75
2022-08-31T01:20:49.015Z,102855.19
2022-08-31T01:23:34.167Z,102857.25
2022-08-31T01:26:06.372Z,102864.94
2022-08-31T01:28:33.135Z,102869.91
2022-08-31T01:31:14.289Z,102860.28
2022-08-31T01:33:41.571Z,102869.69
2022-08-31T01:36:13.131Z,102863.47
2022-08-31T01:38:45.959Z,102861.91
2022-08-31T01:41:14.355Z,102858.47
2022-08-31T01:43:41.450Z,102855.03
2022-08-31T01:46:12.965Z,102854.16
2022-08-31T01:48:43.525Z,102856.91
2022-08-31T01:51:12.601Z,102852.59
2022-08-31T02:04:15.996Z,102844.28
2022-08-31T02:06:46.023Z,102848.94
2022-08-31T02:09:13.252Z,102851.84
2022-08-31T02:11:40.252Z,102844.94
2022-08-31T02:14:07.958Z,102854.19
2022-08-31T02:16:35.257Z,102850.03
2022-08-31T02:19:03.026Z,102852.44
2022-08-31T02:21:29.990Z,102844.47
2022-08-31T02:23:56.899Z,102844.78
2022-08-31T02:26:24.178Z,102842.19
2022-08-31T02:28:51.240Z,102838.75
2022-08-31T02:31:18.308Z,102847.00
2022-08-31T02:33:45.841Z,102838.19
2022-08-31T02:36:12.612Z,102841.94
2022-08-31T02:38:39.769Z,102841.94
2022-08-31T02:41:06.807Z,102838.84
2022-08-31T02:43:33.606Z,102842.59
2022-08-31T02:46:01.643Z,102845.81
2022-08-31T02:48:28.578Z,102842.38
2022-08-31T02:50:55.499Z,102842.38
2022-08-31T02:54:22.467Z,102845.28
2022-08-31T02:57:48.937Z,102846.44
2022-08-31T03:01:15.918Z,102849.34
2022-08-31T03:04:42.467Z,102840.41
2022-08-31T03:08:09.071Z,102837.97
2022-08-31T03:10:36.074Z,102834.03
2022-08-31T03:13:02.912Z,102835.63
2022-08-31T03:15:30.139Z,102828.25
2022-08-31T03:17:57.341Z,102829.81
2022-08-31T03:20:26.143Z,102836.31
2022-08-31T03:22:53.281Z,102826.38
2022-08-31T03:25:21.149Z,102818.47
2022-08-31T03:27:47.967Z,102813.25
2022-08-31T03:30:19.749Z,102824.41
2022-08-31T03:32:48.262Z,102818.91
2022-08-31T03:35:15.906Z,102826.28
2022-08-31T03:37:42.716Z,102825.41
2022-08-31T03:40:10.395Z,102822.81
2022-08-31T03:42:37.295Z,102830.06
2022-08-31T03:45:05.382Z,102829.34
2022-08-31T03:47:32.160Z,102832.38
2022-08-31T03:49:58.912Z,102830.69
2022-08-31T03:52:26.072Z,102837.59
2022-08-31T03:54:53.211Z,102843.44
2022-08-31T03:57:19.979Z,102852.72
2022-08-31T03:59:47.000Z,102846.53
2022-08-31T04:02:13.834Z,102843.09
2022-08-31T04:04:40.566Z,102847.00
2022-08-31T04:07:07.559Z,102846.44
2022-08-31T04:09:34.268Z,102842.69
2022-08-31T04:12:01.154Z,102844.25
2022-08-31T04:14:28.161Z,102844.63
2022-08-31T04:16:54.914Z,102845.03
2022-08-31T04:19:22.391Z,102844.53
2022-08-31T04:21:50.301Z,102846.69
2022-08-31T04:24:17.105Z,102848.09
2022-08-31T04:26:43.884Z,102846.03
2022-08-31T04:29:13.349Z,102844.00
2022-08-31T04:31:40.846Z,102840.25
2022-08-31T04:34:08.214Z,102847.59
2022-08-31T04:36:35.343Z,102855.31
2022-08-31T04:39:04.471Z,102850.13
2022-08-31T04:41:33.154Z,102853.50
2022-08-31T04:44:01.613Z,102846.28
2022-08-31T04:46:28.910Z,102848.69
2022-08-31T04:48:56.811Z,102836.72
2022-08-31T04:51:29.940Z,102832.78
2022-08-31T04:53:57.669Z,102841.03
2022-08-31T04:56:33.206Z,102845.81
2022-08-31T04:59:03.473Z,102849.03
2022-08-31T05:01:42.532Z,102853.09
2022-08-31T05:04:12.542Z,102852.25
2022-08-31T05:06:42.209Z,102858.91
2022-08-31T05:09:13.680Z,102854.91
2022-08-31T05:11:41.048Z,102853.66
2022-08-31T05:14:08.797Z,102855.84
2022-08-31T05:16:38.527Z,102859.22
2022-08-31T05:19:06.011Z,102862.56
2022-08-31T05:21:36.349Z,102852.94
2022-08-31T05:24:15.756Z,102860.59
2022-08-31T05:26:48.401Z,102866.25
2022-08-31T05:29:17.410Z,102862.94
2022-08-31T05:31:49.095Z,102868.72
2022-08-31T05:34:19.542Z,102870.16
2022-08-31T05:36:50.669Z,102870.72
2022-08-31T05:39:17.762Z,102868.34
2022-08-31T05:41:46.467Z,102873.41
2022-08-31T05:44:14.078Z,102872.34
2022-08-31T05:46:41.847Z,102872.34
2022-08-31T05:49:09.138Z,102868.94
2022-08-31T05:51:38.593Z,102861.69
2022-08-31T05:54:07.255Z,102861.09
2022-08-31T05:56:35.073Z,102863.69
2022-08-31T05:59:01.999Z,102863.69
2022-08-31T06:01:34.238Z,102862.13
2022-08-31T06:04:03.776Z,102860.69
2022-08-31T06:06:30.658Z,102856.53
2022-08-31T06:08:58.284Z,102852.94
2022-08-31T06:11:28.086Z,102859.44
2022-08-31T06:13:57.108Z,102861.16
2022-08-31T06:16:24.115Z,102865.78
2022-08-31T06:18:53.539Z,102867.50
2022-08-31T06:21:26.639Z,102868.34
2022-08-31T06:23:58.227Z,102870.25
2022-08-31T06:26:27.425Z,102871.81
2022-08-31T06:28:57.160Z,102871.66
2022-08-31T06:31:29.679Z,102876.00
2022-08-31T06:33:57.064Z,102884.75
2022-08-31T06:36:27.059Z,102880.16
2022-08-31T06:38:56.490Z,102880.69
2022-08-31T06:41:36.788Z,102879.69
2022-08-31T06:44:08.076Z,102891.34
2022-08-31T06:46:36.447Z,102887.59
2022-08-31T06:49:03.951Z,102890.91
2022-08-31T06:51:36.868Z,102897.09
2022-08-31T06:54:27.492Z,102896.22
2022-08-31T06:56:54.321Z,102895.06
2022-08-31T06:59:22.565Z,102899.38
2022-08-31T07:01:50.956Z,102900.25
2022-08-31T07:04:18.025Z,102899.06
2022-08-31T07:06:45.769Z,102902.50
2022-08-31T07:09:17.718Z,102902.19
2022-08-31T07:11:47.884Z,102895.69
2022-08-31T07:14:18.075Z,102899.84
2022-08-31T07:16:45.673Z,102901.41
2022-08-31T07:19:13.850Z,102913.97
2022-08-31T07:21:43.572Z,102912.97
2022-08-31T07:24:11.490Z,102915.41
2022-08-31T07:26:42.643Z,102907.00
2022-08-31T07:29:10.789Z,102908.00
2022-08-31T07:31:46.534Z,102914.22
2022-08-31T07:34:25.715Z,102915.63
2022-08-31T07:37:13.887Z,102913.59
2022-08-31T07:40:04.723Z,102922.09
2022-08-31T07:42:38.371Z,102924.91
2022-08-31T07:45:09.363Z,102921.94
2022-08-31T07:47:46.274Z,102917.91
2022-08-31T07:50:14.861Z,102920.25
2022-08-31T07:52:53.147Z,102925.06
2022-08-31T07:55:22.124Z,102929.06
2022-08-31T07:57:50.830Z,102927.72
2022-08-31T08:00:21.863Z,102934.34
2022-08-31T08:02:52.677Z,102928.16
2022-08-31T08:05:24.481Z,102932.00
2022-08-31T08:07:57.725Z,102929.13
2022-08-31T08:10:25.645Z,102932.63
2022-08-31T08:12:57.351Z,102933.22
2022-08-31T08:15:26.846Z,102929.00
2022-08-31T08:17:53.560Z,102939.19
2022-08-31T08:20:33.990Z,102933.69
2022-08-31T08:23:17.946Z,102931.50
2022-08-31T08:25:46.441Z,102928.28
2022-08-31T08:31:05.405Z,102935.88
2022-08-31T08:33:35.401Z,102927.31
2022-08-31T08:36:07.893Z,102926.66
2022-08-31T08:38:38.260Z,102927.69
2022-08-31T08:41:27.553Z,102928.88
2022-08-31T08:44:00.897Z,102927.50
2022-08-31T08:46:40.503Z,102928.41
2022-08-31T08:49:49.769Z,102935.78
2022-08-31T08:52:27.462Z,102930.63
2022-08-31T08:54:56.646Z,102933.84
2022-08-31T08:57:39.944Z,102934.16
2022-08-31T09:00:12.642Z,102926.00
2022-08-31T09:03:04.130Z,102930.84
2022-08-31T09:05:39.884Z,102931.69
2022-08-31T09:08:44.217Z,102932.84
2022-08-31T09:11:20.189Z,102930.44
2022-08-31T09:13:49.145Z,102931.59
2022-08-31T09:16:26.336Z,102927.28
2022-08-31T09:19:00.246Z,102934.03
2022-08-31T09:21:34.550Z,102940.31
2022-08-31T09:24:06.484Z,102938.28
2022-08-31T09:27:18.109Z,102939.66
2022-08-31T09:29:58.072Z,102939.00
2022-08-31T09:32:27.849Z,102936.19
2022-08-31T09:35:01.804Z,102936.25
2022-08-31T09:37:46.419Z,102934.88
2022-08-31T09:40:23.610Z,102933.34
2022-08-31T09:43:07.782Z,102929.31
2022-08-31T09:45:40.056Z,102925.66
2022-08-31T09:48:09.465Z,102927.84
2022-08-31T09:50:47.132Z,102924.63
2022-08-31T09:53:42.557Z,102931.19
2022-08-31T09:56:15.612Z,102930.81
2022-08-31T09:59:02.996Z,102929.53
2022-08-31T10:01:45.570Z,102930.28
2022-08-31T10:04:17.125Z,102928.13
2022-08-31T10:07:22.226Z,102921.53
2022-08-31T10:09:57.727Z,102922.28
2022-08-31T10:12:50.852Z,102921.59
2022-08-31T10:15:28.438Z,102915.69
2022-08-31T10:17:58.164Z,102922.16
2022-08-31T10:20:32.131Z,102916.66
2022-08-31T10:23:20.994Z,102914.88
2022-08-31T10:26:05.850Z,102913.84
2022-08-31T10:28:40.500Z,102902.34
2022-08-31T10:31:24.009Z,102904.09
2022-08-31T10:34:22.582Z,102901.69
2022-08-31T10:36:54.855Z,102895.53
2022-08-31T10:39:33.603Z,102895.50
2022-08-31T10:42:05.987Z,102890.88
2022-08-31T10:44:52.342Z,102887.66
2022-08-31T10:47:32.760Z,102885.88
2022-08-31T10:50:03.594Z,102880.56
2022-08-31T10:52:34.843Z,102881.88
2022-08-31T10:55:23.613Z,102878.75
2022-08-31T10:58:12.305Z,102878.59
2022-08-31T11:00:54.526Z,102875.81
2022-08-31T11:03:47.751Z,102869.19
2022-08-31T11:06:38.786Z,102867.91
2022-08-31T11:09:26.808Z,102864.00
2022-08-31T11:12:00.093Z,102858.78
2022-08-31T11:14:36.827Z,102866.53
2022-08-31T11:17:32.358Z,102864.44
2022-08-31T11:20:06.559Z,102868.53
2022-08-31T11:22:52.480Z,102870.03
2022-08-31T11:25:53.088Z,102868.53
2022-08-31T11:28:39.718Z,102866.00
2022-08-31T11:31:20.695Z,102868.25
2022-08-31T11:34:14.131Z,102863.72
2022-08-31T11:36:58.371Z,102860.97
2022-08-31T11:39:46.113Z,102861.47
2022-08-31T11:42:28.093Z,102867.13
2022-08-31T11:45:01.031Z,102863.03
2022-08-31T11:47:27.933Z,102863.28
2022-08-31T11:50:29.423Z,102857.31
2022-08-31T11:52:56.956Z,102859.28
2022-08-31T11:55:28.822Z,102859.72
2022-08-31T11:58:07.683Z,102859.69
2022-08-31T12:01:10.015Z,102854.94
2022-08-31T12:03:45.898Z,102859.53
2022-08-31T12:06:34.165Z,102861.59
2022-08-31T12:09:38.280Z,102841.13
2022-08-31T12:12:43.901Z,102846.78
2022-08-31T12:15:44.641Z,102844.69
2022-08-31T12:18:51.589Z,102838.47
2022-08-31T12:21:52.169Z,102843.41
2022-08-31T12:24:33.859Z,102837.56
2022-08-31T12:27:43.959Z,102837.81
2022-08-31T12:30:20.876Z,102819.47
2022-08-31T12:32:59.085Z,102829.91
2022-08-31T12:35:32.427Z,102818.50
2022-08-31T12:38:07.986Z,102813.44
2022-08-31T12:40:54.628Z,102823.97
2022-08-31T12:43:23.276Z,102804.59
2022-08-31T12:46:02.158Z,102800.66
2022-08-31T12:49:07.055Z,102809.25
2022-08-31T12:51:45.608Z,102805.91
2022-08-31T12:54:40.823Z,102793.00
2022-08-31T12:57:28.888Z,102792.66
2022-08-31T13:00:13.354Z,102798.31
2022-08-31T13:02:43.599Z,102795.19
2022-08-31T13:05:29.271Z,102794.22
2022-08-31T13:07:57.094Z,102791.22
2022-08-31T13:10:26.671Z,102794.06
2022-08-31T13:12:56.966Z,102783.59
2022-08-31T13:15:42.281Z,102795.97
2022-08-31T13:18:15.646Z,102787.22
2022-08-31T13:20:45.642Z,102795.53
2022-08-31T13:23:32.229Z,102786.84
2022-08-31T13:26:02.266Z,102791.59
2022-08-31T13:28:33.250Z,102798.84
2022-08-31T13:31:05.508Z,102771.44
2022-08-31T13:33:36.043Z,102782.88
2022-08-31T13:36:30.324Z,102794.25
2022-08-31T13:38:58.325Z,102779.53
2022-08-31T13:41:30.253Z,102786.91
2022-08-31T13:44:01.429Z,102772.75
2022-08-31T13:46:44.639Z,102775.63
2022-08-31T13:49:35.732Z,102777.47
2022-08-31T13:52:25.982Z,102782.09
2022-08-31T13:55:06.004Z,102762.28
2022-08-31T13:57:38.407Z,102763.16
2022-08-31T14:00:32.597Z,102764.59
2022-08-31T14:03:32.054Z,102759.75
2022-08-31T14:06:26.826Z,102744.81
2022-08-31T14:09:03.266Z,102733.09
2022-08-31T14:11:31.816Z,102739.66
2022-08-31T14:14:08.633Z,102744.53
2022-08-31T14:16:43.862Z,102743.13
2022-08-31T14:19:13.240Z,102741.22
2022-08-31T14:21:42.304Z,102740.56
2022-08-31T14:24:12.375Z,102740.72
2022-08-31T14:26:44.268Z,102737.03
2022-08-31T14:29:16.704Z,102719.50
2022-08-31T14:31:49.523Z,102726.34
2022-08-31T14:34:29.903Z,102727.00
2022-08-31T14:36:59.450Z,102731.75
2022-08-31T14:39:31.184Z,102734.50
2022-08-31T14:42:11.775Z,102735.09
2022-08-31T14:44:43.369Z,102732.09
2022-08-31T14:47:11.828Z,102727.91
2022-08-31T14:49:45.614Z,102728.13
2022-08-31T14:52:13.371Z,102730.97
2022-08-31T14:54:41.068Z,102728.69
2022-08-31T14:57:27.032Z,102714.09
2022-08-31T14:59:57.797Z,102707.25
2022-08-31T15:02:31.877Z,102714.88
2022-08-31T15:05:03.117Z,102721.25
2022-08-31T15:07:32.143Z,102707.94
2022-08-31T15:09:59.784Z,102718.50
2022-08-31T15:12:26.807Z,102706.94
2022-08-31T15:15:00.109Z,102723.78
2022-08-31T15:17:28.995Z,102706.13
2022-08-31T15:19:56.161Z,102695.38
2022-08-31T15:22:26.865Z,102696.47
2022-08-31T15:24:54.943Z,102691.38
2022-08-31T15:27:22.597Z,102692.38
2022-08-31T15:29:59.286Z,102690.66
2022-08-31T15:32:26.014Z,102698.41
2022-08-31T15:34:59.080Z,102694.41
2022-08-31T15:37:32.130Z,102690.31
2022-08-31T15:40:01.842Z,102705.59
2022-08-31T15:42:29.713Z,102688.69
2022-08-31T15:44:57.542Z,102676.97
2022-08-31T15:47:52.495Z,102684.03
2022-08-31T15:50:23.364Z,102689.25
2022-08-31T15:52:54.591Z,102681.47
2022-08-31T15:55:26.874Z,102674.22
2022-08-31T15:57:59.662Z,102687.94
2022-08-31T16:00:32.625Z,102689.72
2022-08-31T16:03:01.565Z,102686.13
2022-08-31T16:05:31.500Z,102683.09
2022-08-31T16:07:58.408Z,102678.06
2022-08-31T16:10:27.827Z,102685.00
2022-08-31T16:12:54.504Z,102685.41
2022-08-31T16:15:24.723Z,102683.28
2022-08-31T16:17:52.218Z,102682.53
2022-08-31T16:20:19.117Z,102691.66
2022-08-31T16:22:45.880Z,102683.88
2022-08-31T16:25:14.308Z,102676.97
2022-08-31T16:27:43.503Z,102669.66
2022-08-31T16:30:11.949Z,102668.84
2022-08-31T16:32:38.893Z,102678.31
2022-08-31T16:35:06.543Z,102668.97
2022-08-31T16:37:33.956Z,102672.63
2022-08-31T16:40:00.947Z,102675.28
2022-08-31T16:42:27.842Z,102673.56
2022-08-31T16:44:58.572Z,102665.53
2022-08-31T16:47:29.275Z,102675.56
2022-08-31T16:49:56.395Z,102670.03
2022-08-31T16:52:27.878Z,102670.53
2022-08-31T16:54:57.629Z,102673.06
2022-08-31T16:57:28.445Z,102669.47
2022-08-31T16:59:57.176Z,102673.34
2022-08-31T17:02:24.765Z,102672.00
2022-08-31T17:04:53.342Z,102681.31
2022-08-31T17:07:22.003Z,102677.22
2022-08-31T17:09:48.880Z,102670.94
2022-08-31T17:12:19.365Z,102668.06
2022-08-31T17:14:51.495Z,102674.53
2022-08-31T17:17:22.346Z,102670.78
2022-08-31T17:19:49.735Z,102668.72
2022-08-31T17:22:25.562Z,102652.09
2022-08-31T17:24:56.423Z,102658.44
2022-08-31T17:27:24.152Z,102663.66
2022-08-31T17:29:53.979Z,102655.75
2022-08-31T17:32:24.777Z,102659.25
2022-08-31T17:34:54.733Z,102658.19
2022-08-31T17:37:28.689Z,102666.50
2022-08-31T17:39:56.269Z,102674.53
2022-08-31T17:42:26.994Z,102666.31
2022-08-31T17:44:54.775Z,102670.25
2022-08-31T17:47:23.467Z,102669.94
2022-08-31T17:49:51.107Z,102672.09
2022-08-31T17:52:20.757Z,102680.16
2022-08-31T17:54:48.612Z,102674.91
2022-08-31T17:57:17.480Z,102678.72
2022-08-31T17:59:49.196Z,102670.13
2022-08-31T18:02:25.578Z,102670.22
2022-08-31T18:04:52.932Z,102677.00
2022-08-31T18:07:20.382Z,102678.00
2022-08-31T18:09:47.390Z,102676.50
2022-08-31T18:12:16.654Z,102679.00
2022-08-31T18:14:44.149Z,102681.09
2022-08-31T18:17:13.994Z,102681.22
2022-08-31T18:19:40.743Z,102673.59
2022-08-31T18:22:08.232Z,102679.72
2022-08-31T18:24:37.022Z,102681.56
2022-08-31T18:27:08.963Z,102675.78
2022-08-31T18:29:38.238Z,102668.91
2022-08-31T18:32:07.849Z,102674.78
2022-08-31T18:34:39.171Z,102671.81
2022-08-31T18:37:06.957Z,102682.59
2022-08-31T18:39:59.891Z,102672.06
2022-08-31T18:42:45.620Z,102679.81
2022-08-31T18:45:15.729Z,102676.31
2022-08-31T18:47:43.410Z,102680.50
2022-08-31T18:50:10.400Z,102673.25
2022-08-31T18:52:46.714Z,102679.31
2022-08-31T18:55:15.737Z,102672.53
2022-08-31T18:57:49.126Z,102678.13
2022-08-31T19:00:17.912Z,102685.84
2022-08-31T19:02:45.888Z,102682.66
2022-08-31T19:05:14.482Z,102678.41
2022-08-31T19:07:42.230Z,102676.78
2022-08-31T19:10:13.091Z,102675.63
2022-08-31T19:12:42.875Z,102681.81
2022-08-31T19:15:11.545Z,102674.09
2022-08-31T19:17:40.262Z,102679.00
2022-08-31T19:20:10.116Z,102684.22
2022-08-31T19:22:37.886Z,102680.75
2022-08-31T19:25:07.190Z,102690.09
2022-08-31T19:27:35.355Z,102679.78
2022-08-31T19:30:06.248Z,102682.91
2022-08-31T19:32:34.016Z,102681.72
2022-08-31T19:35:00.810Z,102680.91
2022-08-31T19:37:27.941Z,102683.72
2022-08-31T19:39:54.688Z,102681.50
2022-08-31T19:42:39.765Z,102681.34
2022-08-31T19:45:24.341Z,102685.50
2022-08-31T19:47:51.347Z,102680.88
2022-08-31T19:50:18.537Z,102681.22
2022-08-31T19:52:46.086Z,102683.97
2022-08-31T19:55:13.143Z,102681.78
2022-08-31T19:57:40.051Z,102676.25
2022-08-31T20:00:10.222Z,102680.22
2022-08-31T20:02:37.264Z,102675.22
2022-08-31T20:05:06.602Z,102692.59
2022-08-31T20:07:35.068Z,102682.13
2022-08-31T20:10:03.462Z,102681.78
2022-08-31T20:12:30.516Z,102682.16
2022-08-31T20:14:57.489Z,102677.84
2022-08-31T20:17:24.396Z,102689.22
2022-08-31T20:19:52.435Z,102684.91
2022-08-31T20:22:23.666Z,102679.41
2022-08-31T20:24:53.246Z,102677.84
2022-08-31T20:27:21.327Z,102677.50
2022-08-31T20:29:48.788Z,102680.28
2022-08-31T20:32:15.923Z,102678.72
2022-08-31T20:34:43.745Z,102679.59
2022-08-31T20:37:10.765Z,102677.34
2022-08-31T20:39:39.533Z,102674.78
2022-08-31T20:42:07.851Z,102675.97
2022-08-31T20:44:37.819Z,102679.97
2022-08-31T20:47:27.555Z,102672.56
2022-08-31T20:49:59.628Z,102674.47
2022-08-31T20:52:29.551Z,102674.28
2022-08-31T20:55:01.862Z,102680.28
2022-08-31T20:57:32.116Z,102675.50
2022-08-31T21:00:01.596Z,102673.75
2022-08-31T21:02:29.389Z,102672.22
2022-08-31T21:04:57.308Z,102671.53
2022-08-31T21:07:24.664Z,102666.03
2022-08-31T21:09:51.465Z,102671.91
2022-08-31T21:12:21.535Z,102671.00
2022-08-31T21:14:48.298Z,102667.25
2022-08-31T21:17:16.008Z,102675.31
2022-08-31T21:19:43.931Z,102665.00
2022-08-31T21:22:13.456Z,102669.47
2022-08-31T21:24:43.285Z,102675.84
2022-08-31T21:27:13.797Z,102664.47
2022-08-31T21:29:41.442Z,102663.09
2022-08-31T21:32:10.154Z,102665.00
2022-08-31T21:34:38.037Z,102668.13
2022-08-31T21:37:05.330Z,102672.91
2022-08-31T21:39:32.529Z,102673.94
2022-08-31T21:42:00.109Z,102674.13
2022-08-31T21:44:27.127Z,102676.38
2022-08-31T21:46:54.174Z,102677.03
2022-08-31T21:49:22.078Z,102676.03
2022-08-31T21:51:50.227Z,102667.06
2022-08-31T21:54:19.907Z,102668.44
2022-08-31T21:56:50.688Z,102667.59
2022-08-31T21:59:19.385Z,102660.19
2022-08-31T22:01:47.081Z,102663.09
2022-08-31T22:04:20.908Z,102658.31
2022-08-31T22:06:49.678Z,102657.44
2022-08-31T22:09:22.523Z,102653.47
2022-08-31T22:11:52.781Z,102660.72
2022-08-31T22:14:26.510Z,102658.13
2022-08-31T22:16:55.367Z,102654.50
2022-08-31T22:19:25.685Z,102651.75
2022-08-31T22:21:54.766Z,102657.59
2022-08-31T22:24:26.792Z,102655.38
2022-08-31T22:26:57.428Z,102660.19
2022-08-31T22:29:27.364Z,102652.81
2022-08-31T22:31:59.148Z,102651.59
2022-08-31T22:34:26.841Z,102660.00
2022-08-31T22:36:55.108Z,102654.19
2022-08-31T22:39:29.725Z,102643.16
2022-08-31T22:41:58.099Z,102647.97
2022-08-31T22:44:29.891Z,102642.66
2022-08-31T22:46:57.278Z,102641.78
2022-08-31T22:49:25.861Z,102645.03
2022-08-31T22:51:54.440Z,102643.66
2022-08-31T22:54:22.355Z,102638.53
2022-08-31T22:56:49.160Z,102636.28
2022-08-31T22:59:24.835Z,102633.19
2022-08-31T23:01:55.058Z,102637.47
2022-08-31T23:04:25.463Z,102630.59
2022-08-31T23:07:51.985Z,102630.41
2022-08-31T23:10:20.311Z,102631.78
2022-08-31T23:13:46.856Z,102636.78
2022-08-31T23:21:07.552Z,102629.22
2022-08-31T23:24:34.042Z,102626.13
2022-08-31T23:28:00.706Z,102618.53
2022-08-31T23:31:30.278Z,102616.84
2022-08-31T23:38:49.674Z,102614.22
2022-08-31T23:42:16.178Z,102606.47
2022-08-31T23:49:35.077Z,102609.78
2022-08-31T23:53:01.697Z,102609.44
2022-08-31T23:56:31.079Z,102602.75
